createdAt,value
2022-11-01T00:02:09.571Z,100.00
2022-11-01T00:04:28.046Z,100.00
2022-11-01T00:04:36.097Z,100.00
2022-11-01T00:07:02.518Z,100.00
2022-11-01T00:09:28.921Z,100.00
2022-11-01T00:09:29.048Z,100.00
2022-11-01T00:11:55.329Z,100.00
2022-11-01T00:14:21.920Z,100.00
2022-11-01T00:14:28.103Z,100.00
2022-11-01T00:16:48.914Z,100.00
2022-11-01T00:19:15.449Z,100.00
2022-11-01T00:19:28.330Z,100.00
2022-11-01T00:21:41.841Z,100.00
2022-11-01T00:24:08.394Z,100.00
2022-11-01T00:24:28.169Z,100.00
2022-11-01T00:26:35.467Z,100.00
2022-11-01T00:29:02.002Z,100.00
2022-11-01T00:29:28.202Z,100.00
2022-11-01T00:31:28.673Z,100.00
2022-11-01T00:33:55.450Z,100.00
2022-11-01T00:34:28.217Z,100.00
2022-11-01T00:36:21.800Z,100.00
2022-11-01T00:38:52.427Z,100.00
2022-11-01T00:39:30.651Z,100.00
2022-11-01T00:41:20.698Z,100.00
2022-11-01T00:43:47.387Z,100.00
2022-11-01T00:44:28.146Z,100.00
2022-11-01T00:46:14.054Z,100.00
2022-11-01T00:48:40.760Z,100.00
2022-11-01T00:49:28.132Z,100.00
2022-11-01T00:51:07.158Z,100.00
2022-11-01T00:53:33.734Z,100.00
2022-11-01T00:54:28.147Z,100.00
2022-11-01T00:56:02.206Z,100.00
2022-11-01T00:58:28.595Z,100.00
2022-11-01T00:59:28.154Z,100.00
2022-11-01T01:00:55.309Z,100.00
2022-11-01T01:03:22.086Z,100.00
2022-11-01T01:04:28.159Z,100.00
2022-11-01T01:05:53.996Z,100.00
2022-11-01T01:08:20.728Z,100.00
2022-11-01T01:09:28.165Z,100.00
2022-11-01T01:10:47.825Z,100.00
2022-11-01T01:13:14.735Z,100.00
2022-11-01T01:14:32.238Z,100.00
2022-11-01T01:15:41.511Z,100.00
2022-11-01T01:18:08.188Z,100.00
2022-11-01T01:19:28.224Z,100.00
2022-11-01T01:20:34.858Z,100.00
2022-11-01T01:23:01.511Z,100.00
2022-11-01T01:24:28.144Z,100.00
2022-11-01T01:25:28.312Z,100.00
2022-11-01T01:27:55.543Z,100.00
2022-11-01T01:29:28.163Z,100.00
2022-11-01T01:30:22.238Z,100.00
2022-11-01T01:32:48.567Z,100.00
2022-11-01T01:34:28.145Z,100.00
2022-11-01T01:35:15.020Z,100.00
2022-11-01T01:37:44.839Z,100.00
2022-11-01T01:39:28.329Z,100.00
2022-11-01T01:40:11.479Z,100.00
2022-11-01T01:42:42.843Z,100.00
2022-11-01T01:44:28.202Z,100.00
2022-11-01T01:45:24.033Z,100.00
2022-11-01T01:47:52.894Z,100.00
2022-11-01T01:49:28.165Z,100.00
2022-11-01T01:50:27.344Z,100.00
2022-11-01T01:53:01.375Z,100.00
2022-11-01T01:54:28.150Z,100.00
2022-11-01T01:55:34.682Z,100.00
2022-11-01T01:58:06.476Z,100.00
2022-11-01T01:59:28.156Z,100.00
2022-11-01T02:00:32.811Z,100.00
2022-11-01T02:02:59.479Z,100.00
2022-11-01T02:04:28.154Z,100.00
2022-11-01T02:05:46.144Z,100.00
2022-11-01T02:08:14.431Z,100.00
2022-11-01T02:09:30.900Z,100.00
2022-11-01T02:10:41.513Z,100.00
2022-11-01T02:13:12.621Z,100.00
2022-11-01T02:14:28.172Z,100.00
2022-11-01T02:15:51.146Z,100.00
2022-11-01T02:18:35.940Z,100.00
2022-11-01T02:19:28.521Z,100.00
2022-11-01T02:21:28.305Z,100.00
2022-11-01T02:24:18.829Z,100.00
2022-11-01T02:24:28.188Z,100.00
2022-11-01T02:27:09.209Z,100.00
2022-11-01T02:29:28.175Z,100.00
2022-11-01T02:29:58.289Z,100.00
2022-11-01T02:32:37.074Z,100.00
2022-11-01T02:34:28.195Z,100.00
2022-11-01T02:35:15.036Z,100.00
2022-11-01T02:37:50.056Z,100.00
2022-11-01T02:39:28.170Z,100.00
2022-11-01T02:40:28.114Z,100.00
2022-11-01T02:43:01.637Z,100.00
2022-11-01T02:44:28.211Z,100.00
2022-11-01T02:45:42.703Z,100.00
2022-11-01T02:48:09.213Z,100.00
2022-11-01T02:49:28.168Z,100.00
2022-11-01T02:51:02.171Z,100.00
2022-11-01T02:53:28.558Z,100.00
2022-11-01T02:54:28.281Z,100.00
2022-11-01T02:55:54.885Z,100.00
2022-11-01T02:58:31.987Z,100.00
2022-11-01T02:59:28.192Z,100.00
2022-11-01T03:00:58.662Z,100.00
2022-11-01T03:03:32.069Z,100.00
2022-11-01T03:04:28.176Z,100.00
2022-11-01T03:06:13.582Z,100.00
2022-11-01T03:08:45.484Z,100.00
2022-11-01T03:09:28.176Z,100.00
2022-11-01T03:11:16.561Z,100.00
2022-11-01T03:13:55.839Z,100.00
2022-11-01T03:14:28.181Z,100.00
2022-11-01T03:17:07.303Z,100.00
2022-11-01T03:19:28.359Z,100.00
2022-11-01T03:19:51.815Z,100.00
2022-11-01T03:22:40.065Z,100.00
2022-11-01T03:24:28.232Z,100.00
2022-11-01T03:25:34.413Z,100.00
2022-11-01T03:28:06.552Z,100.00
2022-11-01T03:29:28.216Z,100.00
2022-11-01T03:30:35.188Z,100.00
2022-11-01T03:33:02.262Z,100.00
2022-11-01T03:34:28.198Z,100.00
2022-11-01T03:35:33.280Z,100.00
2022-11-01T03:38:04.608Z,100.00
2022-11-01T03:39:28.189Z,100.00
2022-11-01T03:40:34.237Z,100.00
2022-11-01T03:43:11.512Z,100.00
2022-11-01T03:44:28.220Z,100.00
2022-11-01T03:45:39.768Z,100.00
2022-11-01T03:48:07.052Z,100.00
2022-11-01T03:49:28.221Z,100.00
2022-11-01T03:50:33.926Z,100.00
2022-11-01T03:53:00.457Z,100.00
2022-11-01T03:54:28.214Z,100.00
2022-11-01T03:55:26.809Z,100.00
2022-11-01T03:57:57.939Z,100.00
2022-11-01T03:59:28.294Z,100.00
2022-11-01T04:00:28.493Z,100.00
2022-11-01T04:02:56.069Z,100.00
2022-11-01T04:04:28.369Z,100.00
2022-11-01T04:05:25.337Z,100.00
2022-11-01T04:07:52.554Z,100.00
2022-11-01T04:09:28.207Z,100.00
2022-11-01T04:10:19.723Z,100.00
2022-11-01T04:12:47.808Z,100.00
2022-11-01T04:14:28.188Z,100.00
2022-11-01T04:15:34.480Z,100.00
2022-11-01T04:18:33.714Z,100.00
2022-11-01T04:19:28.380Z,100.00
2022-11-01T04:21:25.261Z,100.00
2022-11-01T04:23:52.136Z,100.00
2022-11-01T04:24:28.247Z,100.00
2022-11-01T04:26:23.764Z,100.00
2022-11-01T04:28:56.899Z,100.00
2022-11-01T04:29:28.218Z,100.00
2022-11-01T04:31:27.419Z,100.00
2022-11-01T04:33:54.344Z,100.00
2022-11-01T04:34:28.242Z,100.00
2022-11-01T04:36:20.833Z,100.00
2022-11-01T04:38:52.108Z,100.00
2022-11-01T04:39:28.201Z,100.00
2022-11-01T04:41:19.653Z,100.00
2022-11-01T04:43:47.259Z,100.00
2022-11-01T04:44:28.220Z,100.00
2022-11-01T04:46:13.680Z,100.00
2022-11-01T04:48:40.007Z,100.00
2022-11-01T04:49:28.222Z,100.00
2022-11-01T04:51:07.072Z,100.00
2022-11-01T04:53:33.425Z,100.00
2022-11-01T04:54:28.218Z,100.00
2022-11-01T04:56:02.722Z,100.00
2022-11-01T04:58:29.416Z,100.00
2022-11-01T04:59:28.222Z,100.00
2022-11-01T05:00:56.110Z,100.00
2022-11-01T05:03:22.480Z,100.00
2022-11-01T05:04:28.221Z,100.00
2022-11-01T05:05:48.935Z,100.00
2022-11-01T05:08:15.458Z,100.00
2022-11-01T05:09:28.269Z,100.00
2022-11-01T05:10:44.309Z,100.00
2022-11-01T05:13:12.556Z,100.00
2022-11-01T05:14:28.210Z,100.00
2022-11-01T05:15:39.957Z,100.00
2022-11-01T05:18:06.703Z,100.00
2022-11-01T05:19:28.420Z,100.00
2022-11-01T05:20:33.475Z,100.00
2022-11-01T05:23:01.848Z,100.00
2022-11-01T05:24:28.272Z,100.00
2022-11-01T05:25:31.409Z,100.00
2022-11-01T05:28:02.414Z,100.00
2022-11-01T05:29:32.925Z,100.00
2022-11-01T05:30:31.926Z,100.00
2022-11-01T05:33:00.596Z,100.00
2022-11-01T05:34:28.254Z,100.00
2022-11-01T05:35:28.364Z,100.00
2022-11-01T05:37:55.216Z,100.00
2022-11-01T05:39:28.216Z,100.00
2022-11-01T05:40:23.758Z,100.00
2022-11-01T05:42:50.396Z,100.00
2022-11-01T05:44:28.236Z,100.00
2022-11-01T05:45:17.237Z,100.00
2022-11-01T05:47:44.047Z,100.00
2022-11-01T05:49:28.215Z,100.00
2022-11-01T05:50:15.969Z,100.00
2022-11-01T05:52:43.485Z,100.00
2022-11-01T05:54:28.230Z,100.00
2022-11-01T05:55:10.429Z,98.72
2022-11-01T05:57:36.876Z,98.24
2022-11-01T05:59:28.237Z,98.24
2022-11-01T06:00:07.530Z,95.34
2022-11-01T06:02:33.952Z,93.98
2022-11-01T06:04:33.900Z,93.98
2022-11-01T06:05:06.690Z,91.99
2022-11-01T06:07:35.403Z,90.33
2022-11-01T06:09:28.319Z,23
2022-11-01T06:10:08.728Z,89.30
2022-11-01T06:12:35.426Z,90.49
2022-11-01T06:14:29.405Z,90.49
2022-11-01T06:15:01.771Z,91.00
2022-11-01T06:17:28.853Z,91.99
2022-11-01T06:19:28.542Z,91.99
2022-11-01T06:19:55.423Z,90.79
2022-11-01T06:22:21.942Z,89.69
2022-11-01T06:24:28.259Z,89.69
2022-11-01T06:24:48.619Z,89.15
2022-11-01T06:27:14.937Z,89.54
2022-11-01T06:29:28.245Z,89.54
2022-11-01T06:29:41.405Z,91.75
2022-11-01T06:32:08.052Z,93.80
2022-11-01T06:34:28.234Z,93.80
2022-11-01T06:34:34.942Z,94.32
2022-11-01T06:37:02.182Z,94.96
2022-11-01T06:39:28.696Z,96.34
2022-11-01T06:39:29.248Z,96.34
2022-11-01T06:41:55.056Z,96.47
2022-11-01T06:44:22.096Z,96.89
2022-11-01T06:44:28.230Z,96.89
2022-11-01T06:46:48.464Z,97.83
2022-11-01T06:49:18.107Z,98.35
2022-11-01T06:49:28.247Z,98.35
2022-11-01T06:51:45.886Z,99.24
2022-11-01T06:54:12.242Z,99.43
2022-11-01T06:54:28.236Z,99.43
2022-11-01T06:56:38.971Z,100.00
2022-11-01T06:59:05.977Z,100.00
2022-11-01T06:59:28.254Z,100.00
2022-11-01T07:01:32.654Z,100.00
2022-11-01T07:03:59.271Z,100.00
2022-11-01T07:04:28.242Z,100.00
2022-11-01T07:06:28.744Z,100.00
2022-11-01T07:08:55.532Z,98.99
2022-11-01T07:09:28.258Z,98.99
2022-11-01T07:11:24.384Z,97.72
2022-11-01T07:13:53.829Z,96.22
2022-11-01T07:14:28.241Z,96.22
2022-11-01T07:16:20.394Z,96.54
2022-11-01T07:18:46.741Z,96.15
2022-11-01T07:19:28.253Z,96.15
2022-11-01T07:21:13.417Z,95.42
2022-11-01T07:23:39.802Z,95.27
2022-11-01T07:24:29.514Z,95.27
2022-11-01T07:26:06.480Z,95.19
2022-11-01T07:28:32.953Z,93.36
2022-11-01T07:29:28.224Z,93.36
2022-11-01T07:30:59.647Z,91.51
2022-11-01T07:33:26.080Z,88.47
2022-11-01T07:34:28.256Z,88.47
2022-11-01T07:35:52.860Z,87.40
2022-11-01T07:38:19.806Z,85.20
2022-11-01T07:39:28.245Z,85.20
2022-11-01T07:40:49.609Z,85.16
2022-11-01T07:43:17.765Z,84.66
2022-11-01T07:44:28.257Z,84.66
2022-11-01T07:45:45.031Z,84.80
2022-11-01T07:48:14.320Z,84.02
2022-11-01T07:49:28.235Z,84.02
2022-11-01T07:50:42.251Z,81.36
2022-11-01T07:53:12.634Z,78.83
2022-11-01T07:54:28.252Z,78.83
2022-11-01T07:55:40.041Z,77.20
2022-11-01T07:58:07.509Z,76.92
2022-11-01T07:59:28.256Z,76.92
2022-11-01T08:03:03.288Z,75.39
2022-11-01T08:04:28.249Z,75.39
2022-11-01T08:05:31.649Z,74.24
2022-11-01T08:07:59.194Z,75.47
2022-11-01T08:09:28.270Z,75.47
2022-11-01T08:10:26.551Z,74.99
2022-11-01T08:13:02.644Z,73.85
2022-11-01T08:14:28.242Z,73.85
2022-11-01T08:15:29.460Z,72.40
2022-11-01T08:17:57.680Z,72.11
2022-11-01T08:19:28.252Z,72.11
2022-11-01T08:20:25.605Z,69.69
2022-11-01T08:22:52.496Z,70.21
2022-11-01T08:24:28.389Z,70.21
2022-11-01T08:25:19.252Z,71.12
2022-11-01T08:27:46.921Z,70.53
2022-11-01T08:29:28.310Z,70.53
2022-11-01T08:30:14.884Z,71.48
2022-11-01T08:32:45.416Z,71.39
2022-11-01T08:34:28.394Z,71.39
2022-11-01T08:35:14.714Z,69.97
2022-11-01T08:37:51.573Z,69.88
2022-11-01T08:39:28.257Z,69.88
2022-11-01T08:40:18.495Z,69.48
2022-11-01T08:42:45.087Z,69.71
2022-11-01T08:44:28.276Z,69.71
2022-11-01T08:45:12.086Z,69.54
2022-11-01T08:47:39.741Z,69.33
2022-11-01T08:49:28.247Z,69.33
2022-11-01T08:50:10.235Z,69.99
2022-11-01T08:52:37.886Z,69.67
2022-11-01T08:54:28.275Z,69.67
2022-11-01T08:55:04.826Z,68.49
2022-11-01T08:57:31.186Z,69.53
2022-11-01T08:59:28.268Z,69.53
2022-11-01T08:59:57.844Z,68.40
2022-11-01T09:02:24.382Z,69.19
2022-11-01T09:04:28.246Z,69.19
2022-11-01T09:04:50.897Z,69.11
2022-11-01T09:07:17.310Z,67.41
2022-11-01T09:09:28.287Z,67.41
2022-11-01T09:09:43.673Z,68.38
2022-11-01T09:12:14.256Z,67.58
2022-11-01T09:14:28.266Z,67.58
2022-11-01T09:14:41.723Z,68.56
2022-11-01T09:17:08.387Z,68.33
2022-11-01T09:19:28.265Z,68.33
2022-11-01T09:19:34.750Z,67.60
2022-11-01T09:22:01.212Z,67.48
2022-11-01T09:24:27.585Z,68.48
2022-11-01T09:24:28.250Z,68.48
2022-11-01T09:26:54.162Z,67.31
2022-11-01T09:29:21.274Z,66.91
2022-11-01T09:29:28.450Z,66.91
2022-11-01T09:31:51.580Z,66.69
2022-11-01T09:34:17.977Z,67.04
2022-11-01T09:34:28.265Z,67.04
2022-11-01T09:36:44.376Z,66.77
2022-11-01T09:39:11.447Z,65.69
2022-11-01T09:39:28.543Z,65.69
2022-11-01T09:41:47.585Z,64.11
2022-11-01T09:44:26.101Z,64.51
2022-11-01T09:44:28.279Z,64.51
2022-11-01T09:47:04.844Z,64.38
2022-11-01T09:49:28.265Z,64.38
2022-11-01T09:49:36.775Z,63.68
2022-11-01T09:52:05.070Z,62.73
2022-11-01T09:54:28.264Z,62.73
2022-11-01T09:54:31.809Z,62.23
2022-11-01T09:57:18.054Z,62.72
2022-11-01T09:59:28.273Z,62.72
2022-11-01T10:00:01.746Z,62.15
2022-11-01T10:02:51.856Z,61.84
2022-11-01T10:04:28.280Z,61.84
2022-11-01T10:05:44.303Z,60.72
2022-11-01T10:08:23.076Z,60.46
2022-11-01T10:09:28.269Z,60.46
2022-11-01T10:11:14.551Z,59.72
2022-11-01T10:14:05.276Z,60.57
2022-11-01T10:14:28.274Z,60.57
2022-11-01T10:16:41.429Z,59.99
2022-11-01T10:19:15.033Z,58.90
2022-11-01T10:19:28.276Z,58.90
2022-11-01T10:21:54.447Z,59.88
2022-11-01T10:24:28.518Z,59.40
2022-11-01T10:24:28.661Z,59.40
2022-11-01T10:27:02.408Z,59.57
2022-11-01T10:29:48.369Z,59.24
2022-11-01T10:29:48.504Z,59.24
2022-11-01T10:32:33.338Z,58.10
2022-11-01T10:34:31.962Z,58.10
2022-11-01T10:35:06.461Z,58.17
2022-11-01T10:37:51.791Z,57.75
2022-11-01T10:39:55.400Z,57.75
2022-11-01T10:40:35.634Z,58.09
2022-11-01T10:43:05.862Z,58.87
2022-11-01T10:44:30.234Z,58.87
2022-11-01T10:45:32.418Z,57.27
2022-11-01T10:47:58.908Z,57.34
2022-11-01T10:49:46.183Z,57.34
2022-11-01T10:50:30.420Z,57.11
2022-11-01T10:53:01.589Z,56.91
2022-11-01T10:54:28.278Z,56.91
2022-11-01T10:55:46.700Z,57.38
2022-11-01T10:58:24.643Z,56.99
2022-11-01T10:59:28.263Z,56.99
2022-11-01T11:00:52.153Z,56.91
2022-11-01T11:03:23.885Z,57.00
2022-11-01T11:04:28.281Z,57.00
2022-11-01T11:05:52.124Z,57.16
2022-11-01T11:08:26.793Z,56.80
2022-11-01T11:09:28.274Z,56.80
2022-11-01T11:10:57.864Z,57.05
2022-11-01T11:13:26.844Z,56.42
2022-11-01T11:14:28.274Z,56.42
2022-11-01T11:16:04.144Z,56.96
2022-11-01T11:18:34.032Z,57.28
2022-11-01T11:19:28.281Z,57.28
2022-11-01T11:21:04.904Z,56.99
2022-11-01T11:23:37.454Z,57.31
2022-11-01T11:24:28.275Z,57.31
2022-11-01T11:26:07.925Z,55.93
2022-11-01T11:28:44.149Z,56.32
2022-11-01T11:29:28.284Z,56.32
2022-11-01T11:31:31.510Z,55.77
2022-11-01T11:34:26.202Z,54.74
2022-11-01T11:34:28.280Z,54.74
2022-11-01T11:36:55.098Z,55.54
2022-11-01T11:39:59.692Z,55.65
2022-11-01T11:39:59.823Z,55.65
2022-11-01T11:42:26.780Z,55.24
2022-11-01T11:44:28.325Z,55.24
2022-11-01T11:45:27.542Z,55.04
2022-11-01T11:47:55.802Z,54.49
2022-11-01T11:49:28.310Z,54.49
2022-11-01T11:50:26.621Z,54.50
2022-11-01T11:53:06.930Z,53.86
2022-11-01T11:54:28.377Z,53.86
2022-11-01T11:55:39.394Z,54.52
2022-11-01T11:58:17.819Z,53.90
2022-11-01T11:59:28.683Z,53.90
2022-11-01T12:00:49.938Z,54.88
2022-11-01T12:03:35.086Z,55.05
2022-11-01T12:04:28.307Z,55.05
2022-11-01T12:06:08.601Z,54.58
2022-11-01T12:08:45.628Z,54.62
2022-11-01T12:09:28.314Z,54.62
2022-11-01T12:11:12.943Z,54.82
2022-11-01T12:13:42.550Z,54.28
2022-11-01T12:14:28.299Z,54.28
2022-11-01T12:16:17.752Z,54.04
2022-11-01T12:18:52.438Z,53.66
2022-11-01T12:19:28.297Z,53.66
2022-11-01T12:21:23.707Z,54.54
2022-11-01T12:24:18.556Z,54.95
2022-11-01T12:24:28.301Z,54.95
2022-11-01T12:26:45.808Z,54.40
2022-11-01T12:29:35.046Z,54.33
2022-11-01T12:29:35.210Z,54.33
2022-11-01T12:32:14.569Z,54.57
2022-11-01T12:34:28.291Z,54.57
2022-11-01T12:34:44.175Z,54.68
2022-11-01T12:37:25.900Z,53.80
2022-11-01T12:39:28.361Z,53.80
2022-11-01T12:39:58.550Z,55.06
2022-11-01T12:42:28.633Z,54.49
2022-11-01T12:44:28.541Z,23
2022-11-01T12:45:02.804Z,55.31
2022-11-01T12:48:13.193Z,55.01
2022-11-01T12:49:28.309Z,55.01
2022-11-01T12:50:47.768Z,54.13
2022-11-01T12:53:20.362Z,54.71
2022-11-01T12:54:28.322Z,54.71
2022-11-01T12:55:47.192Z,54.89
2022-11-01T12:58:21.825Z,53.58
2022-11-01T12:59:28.310Z,53.58
2022-11-01T13:00:53.846Z,54.59
2022-11-01T13:03:45.571Z,54.66
2022-11-01T13:04:31.520Z,54.66
2022-11-01T13:06:18.881Z,54.63
2022-11-01T13:09:02.150Z,55.05
2022-11-01T13:09:28.317Z,55.05
2022-11-01T13:11:50.392Z,54.94
2022-11-01T13:14:43.028Z,55.45
2022-11-01T13:14:43.148Z,55.45
2022-11-01T13:17:27.052Z,55.63
2022-11-01T13:19:28.297Z,55.63
2022-11-01T13:20:24.859Z,55.19
2022-11-01T13:23:03.626Z,55.49
2022-11-01T13:24:28.304Z,55.49
2022-11-01T13:25:58.387Z,55.81
2022-11-01T13:28:40.113Z,55.16
2022-11-01T13:29:28.372Z,55.16
2022-11-01T13:31:18.240Z,54.58
2022-11-01T13:34:10.850Z,55.82
2022-11-01T13:34:28.330Z,55.82
2022-11-01T13:36:47.199Z,55.43
2022-11-01T13:39:38.016Z,55.49
2022-11-01T13:39:38.260Z,55.49
2022-11-01T13:42:16.091Z,55.36
2022-11-01T13:44:28.302Z,55.36
2022-11-01T13:44:47.606Z,56.59
2022-11-01T13:47:41.550Z,56.51
2022-11-01T13:49:28.309Z,56.51
2022-11-01T13:50:23.246Z,56.92
2022-11-01T13:52:59.673Z,56.70
2022-11-01T13:54:28.304Z,56.70
2022-11-01T13:55:42.246Z,57.18
2022-11-01T13:58:18.295Z,58.02
2022-11-01T13:59:28.310Z,58.02
2022-11-01T14:00:50.079Z,57.71
2022-11-01T14:03:19.979Z,58.51
2022-11-01T14:04:28.306Z,58.51
2022-11-01T14:05:47.203Z,58.82
2022-11-01T14:08:35.827Z,57.95
2022-11-01T14:09:28.303Z,57.95
2022-11-01T14:11:02.404Z,57.29
2022-11-01T14:13:35.557Z,58.08
2022-11-01T14:14:28.354Z,58.08
2022-11-01T14:16:19.393Z,58.47
2022-11-01T14:19:16.060Z,58.16
2022-11-01T14:19:28.309Z,58.16
2022-11-01T14:21:48.151Z,59.08
2022-11-01T14:24:25.615Z,59.84
2022-11-01T14:24:33.588Z,59.84
2022-11-01T14:26:56.313Z,59.84
2022-11-01T14:29:22.895Z,60.36
2022-11-01T14:29:28.483Z,60.36
2022-11-01T14:31:52.630Z,60.32
2022-11-01T14:34:35.599Z,60.63
2022-11-01T14:34:35.904Z,60.63
2022-11-01T14:37:05.486Z,60.88
2022-11-01T14:39:28.307Z,23
2022-11-01T14:39:39.965Z,60.19
2022-11-01T14:42:10.943Z,60.24
2022-11-01T14:44:28.341Z,60.24
2022-11-01T14:44:42.700Z,59.60
2022-11-01T14:47:37.148Z,59.54
2022-11-01T14:49:28.332Z,59.54
2022-11-01T14:50:42.218Z,60.03
2022-11-01T14:53:23.685Z,60.65
2022-11-01T14:54:28.329Z,60.65
2022-11-01T14:55:50.148Z,60.90
2022-11-01T14:58:23.243Z,60.47
2022-11-01T14:59:28.319Z,60.47
2022-11-01T15:00:53.031Z,60.90
2022-11-01T15:03:20.271Z,60.67
2022-11-01T15:04:28.317Z,60.67
2022-11-01T15:05:49.760Z,61.19
2022-11-01T15:08:28.560Z,61.92
2022-11-01T15:09:28.338Z,61.92
2022-11-01T15:10:57.261Z,61.19
2022-11-01T15:13:24.348Z,62.90
2022-11-01T15:14:28.347Z,62.90
2022-11-01T15:16:04.788Z,62.83
2022-11-01T15:18:31.867Z,63.52
2022-11-01T15:19:28.328Z,63.52
2022-11-01T15:20:59.957Z,63.81
2022-11-01T15:23:38.040Z,65.20
2022-11-01T15:24:28.437Z,65.20
2022-11-01T15:26:10.067Z,65.44
2022-11-01T15:28:42.829Z,65.55
2022-11-01T15:29:28.317Z,65.55
2022-11-01T15:31:12.400Z,66.44
2022-11-01T15:33:39.205Z,66.96
2022-11-01T15:34:28.342Z,66.96
2022-11-01T15:36:08.939Z,67.57
2022-11-01T15:38:57.895Z,68.59
2022-11-01T15:39:28.342Z,68.59
2022-11-01T15:41:30.773Z,68.37
2022-11-01T15:44:18.102Z,68.63
2022-11-01T15:44:28.340Z,68.63
2022-11-01T15:46:45.299Z,69.68
2022-11-01T15:49:25.468Z,70.76
2022-11-01T15:49:28.336Z,70.76
2022-11-01T15:51:56.824Z,71.08
2022-11-01T15:54:42.321Z,71.05
2022-11-01T15:54:42.440Z,71.05
2022-11-01T15:57:20.588Z,71.91
2022-11-01T15:59:28.330Z,71.91
2022-11-01T16:00:06.389Z,72.20
2022-11-01T16:02:41.162Z,72.50
2022-11-01T16:04:28.345Z,72.50
2022-11-01T16:05:13.392Z,73.61
2022-11-01T16:07:40.538Z,74.42
2022-11-01T16:09:28.372Z,74.42
2022-11-01T16:10:09.245Z,75.20
2022-11-01T16:12:38.711Z,75.57
2022-11-01T16:14:28.352Z,75.57
2022-11-01T16:15:18.919Z,75.98
2022-11-01T16:17:45.390Z,76.38
2022-11-01T16:19:28.343Z,76.38
2022-11-01T16:20:29.248Z,77.39
2022-11-01T16:22:56.961Z,77.46
2022-11-01T16:24:28.340Z,77.46
2022-11-01T16:25:25.714Z,77.44
2022-11-01T16:28:02.751Z,77.82
2022-11-01T16:29:28.352Z,77.82
2022-11-01T16:30:49.177Z,77.37
2022-11-01T16:33:25.150Z,78.39
2022-11-01T16:34:28.403Z,78.39
2022-11-01T16:35:57.566Z,78.11
2022-11-01T16:38:32.908Z,78.95
2022-11-01T16:39:28.365Z,78.95
2022-11-01T16:41:01.478Z,78.78
2022-11-01T16:43:31.191Z,78.65
2022-11-01T16:44:28.342Z,78.65
2022-11-01T16:45:58.756Z,79.42
2022-11-01T16:48:28.666Z,80.18
2022-11-01T16:49:28.394Z,80.18
2022-11-01T16:50:56.889Z,79.81
2022-11-01T16:53:27.650Z,80.45
2022-11-01T16:54:28.350Z,80.45
2022-11-01T16:56:30.593Z,80.71
2022-11-01T16:59:04.436Z,80.76
2022-11-01T16:59:28.352Z,80.76
2022-11-01T17:01:35.360Z,80.43
2022-11-01T17:04:02.890Z,81.15
2022-11-01T17:04:28.391Z,81.15
2022-11-01T17:06:31.374Z,80.83
2022-11-01T17:08:59.892Z,81.23
2022-11-01T17:09:28.366Z,81.23
2022-11-01T17:11:26.226Z,82.00
2022-11-01T17:13:52.623Z,82.61
2022-11-01T17:14:28.390Z,82.61
2022-11-01T17:16:25.207Z,82.34
2022-11-01T17:18:55.697Z,82.74
2022-11-01T17:19:28.364Z,82.74
2022-11-01T17:21:23.302Z,83.32
2022-11-01T17:23:51.304Z,83.22
2022-11-01T17:24:28.358Z,83.22
2022-11-01T17:26:19.199Z,83.80
2022-11-01T17:28:51.190Z,83.88
2022-11-01T17:29:28.348Z,83.88
2022-11-01T17:31:18.522Z,84.71
2022-11-01T17:33:44.956Z,85.04
2022-11-01T17:34:28.427Z,85.04
2022-11-01T17:36:16.532Z,85.60
2022-11-01T17:38:44.791Z,85.37
2022-11-01T17:39:28.371Z,85.37
2022-11-01T17:41:18.231Z,85.67
2022-11-01T17:43:44.731Z,86.22
2022-11-01T17:44:28.363Z,86.22
2022-11-01T17:46:15.353Z,86.58
2022-11-01T17:48:41.706Z,86.70
2022-11-01T17:49:28.418Z,86.70
2022-11-01T17:51:08.121Z,87.06
2022-11-01T17:53:34.908Z,87.50
2022-11-01T17:54:28.365Z,87.50
2022-11-01T17:56:01.234Z,87.33
2022-11-01T17:58:27.712Z,87.89
2022-11-01T17:59:28.376Z,87.89
2022-11-01T18:00:54.101Z,88.74
2022-11-01T18:03:20.703Z,89.68
2022-11-01T18:04:32.604Z,89.68
2022-11-01T18:05:47.306Z,89.77
2022-11-01T18:08:19.867Z,90.16
2022-11-01T18:09:28.374Z,90.16
2022-11-01T18:11:13.246Z,90.68
2022-11-01T18:14:02.707Z,90.71
2022-11-01T18:14:28.369Z,90.71
2022-11-01T18:16:44.253Z,91.16
2022-11-01T18:19:38.033Z,91.54
2022-11-01T18:19:38.151Z,91.54
2022-11-01T18:22:31.480Z,90.81
2022-11-01T18:24:28.356Z,90.81
2022-11-01T18:25:05.291Z,91.30
2022-11-01T18:27:37.679Z,91.97
2022-11-01T18:29:28.375Z,91.97
2022-11-01T18:30:19.211Z,91.85
2022-11-01T18:32:49.523Z,92.53
2022-11-01T18:34:28.390Z,92.53
2022-11-01T18:35:38.948Z,93.21
2022-11-01T18:38:32.051Z,93.03
2022-11-01T18:39:28.391Z,93.03
2022-11-01T18:41:00.211Z,93.27
2022-11-01T18:43:34.958Z,92.93
2022-11-01T18:44:28.394Z,92.93
2022-11-01T18:46:37.135Z,92.73
2022-11-01T18:49:10.716Z,92.95
2022-11-01T18:49:28.372Z,92.95
2022-11-01T18:51:38.874Z,93.07
2022-11-01T18:54:11.332Z,93.48
2022-11-01T18:54:28.385Z,93.48
2022-11-01T18:56:39.515Z,93.36
2022-11-01T18:59:24.462Z,93.88
2022-11-01T18:59:28.381Z,93.88
2022-11-01T19:01:59.213Z,94.31
2022-11-01T19:04:30.511Z,95.08
2022-11-01T19:04:30.659Z,95.08
2022-11-01T19:07:09.964Z,94.47
2022-11-01T19:09:28.363Z,94.47
2022-11-01T19:09:38.516Z,94.87
2022-11-01T19:12:15.141Z,95.04
2022-11-01T19:14:28.385Z,95.04
2022-11-01T19:14:42.972Z,95.08
2022-11-01T19:17:26.843Z,95.88
2022-11-01T19:19:28.383Z,95.88
2022-11-01T19:19:54.628Z,96.15
2022-11-01T19:22:37.785Z,95.71
2022-11-01T19:24:28.400Z,95.71
2022-11-01T19:25:21.792Z,96.64
2022-11-01T19:27:50.574Z,97.08
2022-11-01T19:29:28.390Z,97.08
2022-11-01T19:30:22.219Z,97.47
2022-11-01T19:32:49.275Z,97.39
2022-11-01T19:34:28.375Z,97.39
2022-11-01T19:35:21.730Z,97.83
2022-11-01T19:37:50.939Z,97.92
2022-11-01T19:39:28.434Z,97.92
2022-11-01T19:40:34.684Z,97.43
2022-11-01T19:43:16.177Z,97.46
2022-11-01T19:44:28.375Z,97.46
2022-11-01T19:45:49.439Z,98.67
2022-11-01T19:48:20.306Z,98.93
2022-11-01T19:49:28.428Z,98.93
2022-11-01T19:50:47.055Z,99.62
2022-11-01T19:53:19.300Z,99.32
2022-11-01T19:54:28.400Z,99.32
2022-11-01T19:56:09.871Z,99.25
2022-11-01T19:58:45.611Z,99.38
2022-11-01T19:59:28.386Z,99.38
2022-11-01T20:01:21.433Z,99.71
2022-11-01T20:03:56.114Z,99.53
2022-11-01T20:04:28.386Z,99.53
2022-11-01T20:06:26.936Z,100.00
2022-11-01T20:08:57.304Z,100.00
2022-11-01T20:09:28.383Z,100.00
2022-11-01T20:11:23.737Z,100.00
2022-11-01T20:13:50.240Z,100.00
2022-11-01T20:14:28.411Z,100.00
2022-11-01T20:16:16.634Z,100.00
2022-11-01T20:18:43.300Z,100.00
2022-11-01T20:19:28.425Z,100.00
2022-11-01T20:21:09.879Z,100.00
2022-11-01T20:23:36.714Z,100.00
2022-11-01T20:24:28.392Z,100.00
2022-11-01T20:26:03.929Z,100.00
2022-11-01T20:28:31.047Z,100.00
2022-11-01T20:29:28.428Z,100.00
2022-11-01T20:30:57.954Z,100.00
2022-11-01T20:33:25.021Z,100.00
2022-11-01T20:34:28.401Z,100.00
2022-11-01T20:35:52.578Z,99.95
2022-11-01T20:39:28.658Z,100.00
2022-11-01T20:40:46.730Z,100.00
2022-11-01T20:43:13.118Z,100.00
2022-11-01T20:44:28.383Z,100.00
2022-11-01T20:45:39.481Z,100.00
2022-11-01T20:48:07.333Z,100.00
2022-11-01T20:49:28.392Z,100.00
2022-11-01T20:50:34.372Z,100.00
2022-11-01T20:53:01.088Z,100.00
2022-11-01T20:54:28.404Z,100.00
2022-11-01T20:55:27.862Z,100.00
2022-11-01T20:57:54.349Z,100.00
2022-11-01T20:59:28.397Z,100.00
2022-11-01T21:00:20.845Z,100.00
2022-11-01T21:02:47.914Z,100.00
2022-11-01T21:04:28.438Z,100.00
2022-11-01T21:05:14.232Z,100.00
2022-11-01T21:07:46.664Z,100.00
2022-11-01T21:09:28.396Z,100.00
2022-11-01T21:10:28.494Z,100.00
2022-11-01T21:12:55.197Z,100.00
2022-11-01T21:14:28.414Z,100.00
2022-11-01T21:15:34.011Z,100.00
2022-11-01T21:18:09.751Z,100.00
2022-11-01T21:19:28.404Z,100.00
2022-11-01T21:20:40.160Z,100.00
2022-11-01T21:23:21.540Z,100.00
2022-11-01T21:24:28.401Z,100.00
2022-11-01T21:25:53.617Z,100.00
2022-11-01T21:28:35.309Z,100.00
2022-11-01T21:29:28.399Z,100.00
2022-11-01T21:31:20.548Z,100.00
2022-11-01T21:33:56.380Z,100.00
2022-11-01T21:34:28.387Z,100.00